createdAt,value
2023-04-15T00:01:03.896Z,3.85
2023-04-15T00:03:31.190Z,3.30
2023-04-15T00:06:01.961Z,4.20
2023-04-15T00:08:30.040Z,3.63
2023-04-15T00:10:59.485Z,3.97
2023-04-15T00:13:26.594Z,2.58
2023-04-15T00:15:53.920Z,3.53
2023-04-15T00:18:22.079Z,2.25
2023-04-15T00:20:49.179Z,3.70
2023-04-15T00:23:16.339Z,2.72
2023-04-15T00:25:43.459Z,5.88
2023-04-15T00:28:10.529Z,3.63
2023-04-15T00:30:38.041Z,4.03
2023-04-15T00:33:05.144Z,2.85
2023-04-15T00:35:32.839Z,3.38
2023-04-15T00:37:59.997Z,3.55
2023-04-15T00:40:27.960Z,6.30
2023-04-15T00:42:55.149Z,3.13
2023-04-15T00:45:22.301Z,2.78
2023-04-15T00:47:49.479Z,2.60
2023-04-15T00:50:16.620Z,2.60
2023-04-15T00:52:43.864Z,2.63
2023-04-15T00:55:11.374Z,5.13
2023-04-15T00:57:39.618Z,3.75
2023-04-15T01:00:08.745Z,3.80
2023-04-15T01:02:37.086Z,4.07
2023-04-15T01:05:05.016Z,2.40
2023-04-15T01:07:32.738Z,3.28
2023-04-15T01:10:00.038Z,2.97
2023-04-15T01:12:27.664Z,4.75
2023-04-15T01:14:55.124Z,4.15
2023-04-15T01:17:22.431Z,4.78
2023-04-15T01:19:49.555Z,4.15
2023-04-15T01:22:16.904Z,4.97
2023-04-15T01:24:49.090Z,3.90
2023-04-15T01:27:16.411Z,5.05
2023-04-15T01:29:43.531Z,2.63
2023-04-15T01:32:10.877Z,2.63
2023-04-15T01:34:37.997Z,4.25
2023-04-15T01:37:05.292Z,3.63
2023-04-15T01:39:32.420Z,2.92
2023-04-15T01:41:59.644Z,3.63
2023-04-15T01:44:27.627Z,2.95
2023-04-15T01:46:54.877Z,3.35
2023-04-15T01:49:22.517Z,2.80
2023-04-15T01:51:49.642Z,3.00
2023-04-15T01:54:16.952Z,3.20
2023-04-15T01:56:44.033Z,6.15
2023-04-15T01:59:11.223Z,4.40
2023-04-15T02:01:38.933Z,2.85
2023-04-15T02:04:06.344Z,2.42
2023-04-15T02:06:33.469Z,3.58
2023-04-15T02:09:00.862Z,3.15
2023-04-15T02:11:28.280Z,2.28
2023-04-15T02:13:55.355Z,3.90
2023-04-15T02:16:22.548Z,4.15
2023-04-15T02:18:49.802Z,2.30
2023-04-15T02:21:16.964Z,3.83
2023-04-15T02:23:44.104Z,3.35
2023-04-15T02:26:11.880Z,2.75
2023-04-15T02:28:39.055Z,3.05
2023-04-15T02:31:09.667Z,2.97
2023-04-15T02:33:37.918Z,2.40
2023-04-15T02:36:05.249Z,3.28
2023-04-15T02:38:32.439Z,4.68
2023-04-15T02:40:59.581Z,3.33
2023-04-15T02:43:26.832Z,2.40
2023-04-15T02:45:54.022Z,2.67
2023-04-15T02:48:21.983Z,2.03
2023-04-15T02:50:49.145Z,3.00
2023-04-15T02:53:17.467Z,3.67
2023-04-15T02:55:44.664Z,5.50
2023-04-15T02:58:11.979Z,2.85
2023-04-15T03:00:39.247Z,2.67
2023-04-15T03:03:07.154Z,2.95
2023-04-15T03:05:34.455Z,3.03
2023-04-15T03:08:01.653Z,2.38
2023-04-15T03:10:28.781Z,2.45
2023-04-15T03:12:55.931Z,2.65
2023-04-15T03:15:23.138Z,2.83
2023-04-15T03:17:50.661Z,3.78
2023-04-15T03:20:20.822Z,3.00
2023-04-15T03:22:47.980Z,3.53
2023-04-15T03:25:15.225Z,2.97
2023-04-15T03:27:42.614Z,2.72
2023-04-15T03:30:10.043Z,3.42
2023-04-15T03:32:37.197Z,3.25
2023-04-15T03:35:04.447Z,3.20
2023-04-15T03:37:31.538Z,2.42
2023-04-15T03:39:58.793Z,2.50
2023-04-15T03:42:26.005Z,1.98
2023-04-15T03:44:53.361Z,4.20
2023-04-15T03:47:20.535Z,3.90
2023-04-15T03:49:47.654Z,2.95
2023-04-15T03:52:14.988Z,3.30
2023-04-15T03:54:42.087Z,2.28
2023-04-15T03:57:09.243Z,2.90
2023-04-15T03:59:36.398Z,3.05
2023-04-15T04:02:03.634Z,3.72
2023-04-15T04:04:31.142Z,3.22
2023-04-15T04:06:58.362Z,3.25
2023-04-15T04:09:25.879Z,3.20
2023-04-15T04:11:53.070Z,3.15
2023-04-15T04:14:20.293Z,3.85
2023-04-15T04:16:47.438Z,3.08
2023-04-15T04:19:15.050Z,4.15
2023-04-15T04:21:42.136Z,3.50
2023-04-15T04:24:09.307Z,3.33
2023-04-15T04:26:36.451Z,3.08
2023-04-15T04:29:03.953Z,2.75
2023-04-15T04:31:31.270Z,2.55
2023-04-15T04:33:58.385Z,4.88
2023-04-15T04:36:26.381Z,3.58
2023-04-15T04:38:53.500Z,2.22
2023-04-15T04:41:20.649Z,2.92
2023-04-15T04:43:47.768Z,3.58
2023-04-15T04:46:14.958Z,3.05
2023-04-15T04:48:42.159Z,3.72
2023-04-15T04:51:09.467Z,4.15
2023-04-15T04:53:37.669Z,3.35
2023-04-15T04:56:04.997Z,3.60
2023-04-15T04:58:32.107Z,5.32
2023-04-15T05:00:59.541Z,3.25
2023-04-15T05:03:27.556Z,3.05
2023-04-15T05:05:55.059Z,2.63
2023-04-15T05:08:22.218Z,3.33
2023-04-15T05:10:49.338Z,4.80
2023-04-15T05:13:16.475Z,8.55
2023-04-15T05:15:43.680Z,5.32
2023-04-15T05:18:10.992Z,6.10
2023-04-15T05:20:38.175Z,5.80
2023-04-15T05:23:05.273Z,3.85
2023-04-15T05:25:32.416Z,7.55
2023-04-15T05:27:59.584Z,2.75
2023-04-15T05:30:26.702Z,5.03
2023-04-15T05:32:53.906Z,5.13
2023-04-15T05:35:21.039Z,3.20
2023-04-15T05:37:48.272Z,3.88
2023-04-15T05:40:15.542Z,3.10
2023-04-15T05:42:42.700Z,3.22
2023-04-15T05:45:10.019Z,3.10
2023-04-15T05:47:40.147Z,3.28
2023-04-15T05:50:08.241Z,2.80
2023-04-15T05:52:35.463Z,5.25
2023-04-15T05:55:02.588Z,5.28
2023-04-15T05:57:29.663Z,4.63
2023-04-15T05:59:57.778Z,3.05
2023-04-15T06:02:25.038Z,4.78
2023-04-15T06:04:52.435Z,3.65
2023-04-15T06:07:19.600Z,4.78
2023-04-15T06:09:46.725Z,2.70
2023-04-15T06:12:13.932Z,3.75
2023-04-15T06:14:41.234Z,3.97
2023-04-15T06:17:08.551Z,2.70
2023-04-15T06:19:39.350Z,4.18
2023-04-15T06:22:07.312Z,4.07
2023-04-15T06:24:34.547Z,3.05
2023-04-15T06:27:02.368Z,2.95
2023-04-15T06:29:29.527Z,2.90
2023-04-15T06:31:56.898Z,2.75
2023-04-15T06:34:24.034Z,4.13
2023-04-15T06:36:51.192Z,3.22
2023-04-15T06:39:18.396Z,3.17
2023-04-15T06:41:45.592Z,2.40
2023-04-15T06:44:12.748Z,3.10
2023-04-15T06:46:40.000Z,3.60
2023-04-15T06:49:07.137Z,3.30
2023-04-15T06:51:35.962Z,3.38
2023-04-15T06:54:05.832Z,2.40
2023-04-15T06:56:34.279Z,3.35
2023-04-15T06:59:01.833Z,4.07
2023-04-15T07:06:26.064Z,2.92
2023-04-15T07:08:53.198Z,2.85
2023-04-15T07:11:21.189Z,4.63
2023-04-15T07:13:48.306Z,3.08
2023-04-15T07:16:15.450Z,3.17
2023-04-15T07:18:43.493Z,3.05
2023-04-15T07:21:11.291Z,3.60
2023-04-15T07:23:38.423Z,2.60
2023-04-15T07:26:05.636Z,3.05
2023-04-15T07:28:32.800Z,3.58
2023-04-15T07:31:00.132Z,5.53
2023-04-15T07:33:27.398Z,3.58
2023-04-15T07:35:54.490Z,3.95
2023-04-15T07:38:21.638Z,3.17
2023-04-15T07:40:49.623Z,3.15
2023-04-15T07:43:16.794Z,2.90
2023-04-15T07:45:43.943Z,3.05
2023-04-15T07:48:11.444Z,4.85
2023-04-15T07:50:38.670Z,4.07
2023-04-15T07:53:06.619Z,3.55
2023-04-15T07:55:33.719Z,3.00
2023-04-15T07:58:00.843Z,3.78
2023-04-15T08:00:28.452Z,5.15
2023-04-15T08:02:57.441Z,9.75
2023-04-15T08:05:24.820Z,7.43
2023-04-15T08:07:52.186Z,9.75
2023-04-15T08:10:19.353Z,5.03
2023-04-15T08:12:49.306Z,4.38
2023-04-15T08:15:16.859Z,4.28
2023-04-15T08:17:44.012Z,6.30
2023-04-15T08:20:11.697Z,4.65
2023-04-15T08:22:38.797Z,8.50
2023-04-15T08:25:06.230Z,4.55
2023-04-15T08:27:33.419Z,4.15
2023-04-15T08:30:02.760Z,3.45
2023-04-15T08:32:32.078Z,3.70
2023-04-15T08:34:59.263Z,4.35
2023-04-15T08:37:26.942Z,3.92
2023-04-15T08:39:54.171Z,4.55
2023-04-15T08:42:25.040Z,4.88
2023-04-15T08:44:52.157Z,5.65
2023-04-15T08:47:22.697Z,3.67
2023-04-15T08:49:53.914Z,3.28
2023-04-15T08:52:21.498Z,3.92
2023-04-15T08:54:48.956Z,4.80
2023-04-15T08:57:16.320Z,3.60
2023-04-15T08:59:44.561Z,5.30
2023-04-15T09:02:12.337Z,3.67
2023-04-15T09:04:39.563Z,4.22
2023-04-15T09:07:06.900Z,4.43
2023-04-15T09:09:34.176Z,4.80
2023-04-15T09:12:02.392Z,5.05
2023-04-15T09:14:32.186Z,6.03
2023-04-15T09:17:05.537Z,4.10
2023-04-15T09:19:34.521Z,4.90
2023-04-15T09:22:02.798Z,3.80
2023-04-15T09:24:40.896Z,5.35
2023-04-15T09:27:08.293Z,4.70
2023-04-15T09:29:35.611Z,3.80
2023-04-15T09:32:15.565Z,3.85
2023-04-15T09:34:43.267Z,3.53
2023-04-15T09:37:29.065Z,4.47
2023-04-15T09:39:59.102Z,3.03
2023-04-15T09:42:26.983Z,3.58
2023-04-15T09:44:54.227Z,4.15
2023-04-15T09:47:34.586Z,3.83
2023-04-15T09:50:02.508Z,4.75
2023-04-15T09:52:30.293Z,3.92
2023-04-15T09:55:01.119Z,3.47
2023-04-15T09:57:35.419Z,3.90
2023-04-15T10:00:04.230Z,3.45
2023-04-15T10:02:32.005Z,2.88
2023-04-15T10:05:00.222Z,2.60
2023-04-15T10:07:27.804Z,3.47
2023-04-15T10:09:54.997Z,2.97
2023-04-15T10:12:22.890Z,3.10
2023-04-15T10:15:01.594Z,3.55
2023-04-15T10:17:31.623Z,2.75
2023-04-15T10:19:58.903Z,4.22
2023-04-15T10:22:27.655Z,3.38
2023-04-15T10:24:55.430Z,3.33
2023-04-15T10:27:22.884Z,2.80
2023-04-15T10:29:50.556Z,3.90
2023-04-15T10:32:21.147Z,3.35
2023-04-15T10:34:49.567Z,2.60
2023-04-15T10:37:21.533Z,2.40
2023-04-15T10:39:49.100Z,2.85
2023-04-15T10:42:17.227Z,2.45
2023-04-15T10:44:57.375Z,2.83
2023-04-15T10:47:25.487Z,2.47
2023-04-15T10:49:53.602Z,3.53
2023-04-15T10:52:25.861Z,3.10
2023-04-15T10:55:03.704Z,2.70
2023-04-15T10:57:36.171Z,3.80
2023-04-15T11:00:11.256Z,2.33
2023-04-15T11:07:46.783Z,2.45
2023-04-15T11:10:26.318Z,2.20
2023-04-15T11:13:03.704Z,2.88
2023-04-15T11:15:33.148Z,6.40
2023-04-15T11:18:09.279Z,3.55
2023-04-15T11:20:37.187Z,5.63
2023-04-15T11:23:14.053Z,2.10
2023-04-15T11:25:42.814Z,3.63
2023-04-15T11:28:09.990Z,3.65
2023-04-15T11:30:37.722Z,2.53
2023-04-15T11:33:08.676Z,2.67
2023-04-15T11:35:36.316Z,2.88
2023-04-15T11:38:04.222Z,1.55
2023-04-15T11:40:33.393Z,3.45
2023-04-15T11:43:16.618Z,2.90
2023-04-15T11:45:51.484Z,2.47
2023-04-15T11:48:19.183Z,2.60
2023-04-15T11:50:46.492Z,2.97
2023-04-15T11:53:14.776Z,2.40
2023-04-15T11:55:49.544Z,1.90
2023-04-15T11:58:19.868Z,3.08
2023-04-15T12:00:48.136Z,2.30
2023-04-15T12:03:20.351Z,2.78
2023-04-15T12:06:06.432Z,2.42
2023-04-15T12:08:55.322Z,2.28
2023-04-15T12:11:31.393Z,3.72
2023-04-15T12:13:58.527Z,2.03
2023-04-15T12:16:26.063Z,2.80
2023-04-15T12:18:55.856Z,1.52
2023-04-15T12:21:23.958Z,3.70
2023-04-15T12:23:52.091Z,4.00
2023-04-15T12:26:26.309Z,2.60
2023-04-15T12:29:03.457Z,1.50
2023-04-15T12:31:30.917Z,4.25
2023-04-15T12:33:58.578Z,2.58
2023-04-15T12:36:25.980Z,2.60
2023-04-15T12:38:53.249Z,2.88
2023-04-15T12:41:21.926Z,1.95
2023-04-15T12:43:49.125Z,2.28
2023-04-15T12:46:16.715Z,2.15
2023-04-15T12:48:43.957Z,2.55
2023-04-15T12:51:11.391Z,2.83
2023-04-15T12:53:38.565Z,3.08
2023-04-15T12:56:06.500Z,2.30
2023-04-15T12:58:33.624Z,3.03
2023-04-15T13:01:00.781Z,2.60
2023-04-15T13:03:28.118Z,2.28
2023-04-15T13:05:55.405Z,2.30
2023-04-15T13:08:22.594Z,1.90
2023-04-15T13:10:49.855Z,3.65
2023-04-15T13:13:16.971Z,1.70
2023-04-15T13:15:45.893Z,2.03
2023-04-15T13:18:13.163Z,1.13
2023-04-15T13:20:40.894Z,1.77
2023-04-15T13:23:08.322Z,1.55
2023-04-15T13:25:35.425Z,1.50
2023-04-15T13:28:03.160Z,2.58
2023-04-15T13:30:31.314Z,3.70
2023-04-15T13:32:58.615Z,4.28
2023-04-15T13:35:25.804Z,1.48
2023-04-15T13:37:55.082Z,2.15
2023-04-15T13:40:22.279Z,3.00
2023-04-15T13:42:49.447Z,3.10
2023-04-15T13:45:16.568Z,2.35
2023-04-15T13:47:43.867Z,2.28
2023-04-15T13:50:11.307Z,1.48
2023-04-15T13:52:38.453Z,1.75
2023-04-15T13:55:19.667Z,2.80
2023-04-15T13:57:50.480Z,5.13
2023-04-15T14:00:17.892Z,2.28
2023-04-15T14:02:45.189Z,1.92
2023-04-15T14:05:12.504Z,2.67
2023-04-15T14:07:39.743Z,2.15
2023-04-15T14:10:07.277Z,2.20
2023-04-15T14:12:34.381Z,1.70
2023-04-15T14:15:02.292Z,0.88
2023-04-15T14:17:29.477Z,1.95
2023-04-15T14:19:56.608Z,1.63
2023-04-15T14:22:23.720Z,3.72
2023-04-15T14:24:53.103Z,2.20
2023-04-15T14:27:20.460Z,2.58
2023-04-15T14:29:48.079Z,1.75
2023-04-15T14:32:17.245Z,2.72
2023-04-15T14:34:44.491Z,3.47
2023-04-15T14:37:11.886Z,4.53
2023-04-15T14:39:42.332Z,4.93
2023-04-15T14:42:09.439Z,6.10
2023-04-15T14:44:36.935Z,4.68
2023-04-15T14:47:04.138Z,3.83
2023-04-15T14:49:31.233Z,5.82
2023-04-15T14:51:58.385Z,6.60
2023-04-15T14:54:25.761Z,5.70
2023-04-15T14:56:53.021Z,3.75
2023-04-15T14:59:20.277Z,2.15
2023-04-15T15:01:47.452Z,3.08
2023-04-15T15:04:14.772Z,2.25
2023-04-15T15:06:42.512Z,2.78
2023-04-15T15:09:09.664Z,3.53
2023-04-15T15:11:36.798Z,3.05
2023-04-15T15:14:03.998Z,2.58
2023-04-15T15:16:31.608Z,2.25
2023-04-15T15:18:58.787Z,4.60
2023-04-15T15:21:27.072Z,4.57
2023-04-15T15:23:54.225Z,7.10
2023-04-15T15:26:21.462Z,5.18
2023-04-15T15:28:50.684Z,4.28
2023-04-15T15:31:17.937Z,3.85
2023-04-15T15:33:45.387Z,4.07
2023-04-15T15:36:12.632Z,7.40
2023-04-15T15:38:41.674Z,5.97
2023-04-15T15:41:12.263Z,7.02
2023-04-15T15:43:39.379Z,11.10
2023-04-15T15:46:07.756Z,11.40
2023-04-15T15:48:35.062Z,14.27
2023-04-15T15:51:04.169Z,14.50
2023-04-15T15:53:31.313Z,15.30
2023-04-15T15:55:58.991Z,12.95
2023-04-15T15:58:26.113Z,14.00
2023-04-15T16:00:53.274Z,11.45
2023-04-15T16:03:20.699Z,11.55
2023-04-15T16:05:48.015Z,16.30
2023-04-15T16:08:15.202Z,14.98
2023-04-15T16:10:42.432Z,12.13
2023-04-15T16:13:10.769Z,15.63
2023-04-15T16:15:37.919Z,15.90
2023-04-15T16:18:05.545Z,18.38
2023-04-15T16:20:32.795Z,16.25
2023-04-15T16:23:00.047Z,21.17
2023-04-15T16:25:27.315Z,18.05
2023-04-15T16:28:03.513Z,11.43
2023-04-15T16:30:39.850Z,13.77
2023-04-15T16:33:07.374Z,11.77
2023-04-15T16:35:34.917Z,7.28
2023-04-15T16:38:02.286Z,9.68
2023-04-15T16:40:29.454Z,7.82
2023-04-15T16:42:56.595Z,6.18
2023-04-15T16:45:23.723Z,8.38
2023-04-15T16:47:51.096Z,7.93
2023-04-15T16:50:18.460Z,8.05
2023-04-15T16:52:45.629Z,11.57
2023-04-15T16:55:12.776Z,11.45
2023-04-15T16:58:00.983Z,8.23
2023-04-15T17:00:27.269Z,8.75
2023-04-15T17:02:55.772Z,6.05
2023-04-15T17:05:22.968Z,7.55
2023-04-15T17:07:50.073Z,7.75
2023-04-15T17:10:17.394Z,5.55
2023-04-15T17:12:44.545Z,7.85
2023-04-15T17:15:11.716Z,12.52
2023-04-15T17:17:38.855Z,7.05
2023-04-15T17:20:06.379Z,9.82
2023-04-15T17:22:33.630Z,7.40
2023-04-15T17:25:00.726Z,6.82
2023-04-15T17:27:28.874Z,7.75
2023-04-15T17:29:56.220Z,8.57
2023-04-15T17:32:23.724Z,6.78
2023-04-15T17:34:51.399Z,8.65
2023-04-15T17:37:18.916Z,6.07
2023-04-15T17:39:46.196Z,7.47
2023-04-15T17:42:14.081Z,6.32
2023-04-15T17:44:41.406Z,4.75
2023-04-15T17:47:08.519Z,6.78
2023-04-15T17:49:37.719Z,5.82
2023-04-15T17:52:04.930Z,6.35
2023-04-15T17:54:32.092Z,8.05
2023-04-15T17:57:00.109Z,5.65
2023-04-15T17:59:28.223Z,5.93
2023-04-15T18:01:55.627Z,5.10
2023-04-15T18:04:26.428Z,5.65
2023-04-15T18:06:54.282Z,4.78
2023-04-15T18:09:21.742Z,6.60
2023-04-15T18:11:49.197Z,6.03
2023-04-15T18:14:30.736Z,8.68
2023-04-15T18:17:01.249Z,5.68
2023-04-15T18:19:28.504Z,5.55
2023-04-15T18:21:55.760Z,5.53
2023-04-15T18:24:23.202Z,5.38
2023-04-15T18:26:50.465Z,7.00
2023-04-15T18:29:18.523Z,4.97
2023-04-15T18:31:45.658Z,6.30
2023-04-15T18:34:13.432Z,7.47
2023-04-15T18:36:40.560Z,4.45
2023-04-15T18:39:08.038Z,7.05
2023-04-15T18:41:35.436Z,5.88
2023-04-15T18:44:02.561Z,4.25
2023-04-15T18:46:29.789Z,4.55
2023-04-15T18:48:56.938Z,5.93
2023-04-15T18:51:24.134Z,6.72
2023-04-15T18:53:51.517Z,4.53
2023-04-15T18:56:18.678Z,4.93
2023-04-15T18:59:08.848Z,5.28
2023-04-15T19:01:33.867Z,5.22
2023-04-15T19:04:01.724Z,5.50
2023-04-15T19:06:29.510Z,3.45
2023-04-15T19:08:58.535Z,4.03
2023-04-15T19:11:26.352Z,3.97
2023-04-15T19:13:53.554Z,4.10
2023-04-15T19:16:21.039Z,4.55
2023-04-15T19:18:48.352Z,3.40
2023-04-15T19:21:16.138Z,5.80
2023-04-15T19:23:43.383Z,3.83
2023-04-15T19:26:10.870Z,4.85
2023-04-15T19:28:37.971Z,3.60
2023-04-15T19:31:05.247Z,6.78
2023-04-15T19:33:32.492Z,5.18
2023-04-15T19:36:04.027Z,5.85
2023-04-15T19:38:31.715Z,5.20
2023-04-15T19:40:59.159Z,5.15
2023-04-15T19:43:26.481Z,4.15
2023-04-15T19:45:54.784Z,4.57
2023-04-15T19:48:23.304Z,3.80
2023-04-15T19:50:50.534Z,3.80
2023-04-15T19:53:17.825Z,4.75
2023-04-15T19:55:45.005Z,3.50
2023-04-15T19:58:12.167Z,3.83
2023-04-15T20:00:39.370Z,3.95
2023-04-15T20:03:06.865Z,4.95
2023-04-15T20:05:34.210Z,4.43
2023-04-15T20:08:01.923Z,3.25
2023-04-15T20:10:31.094Z,3.03
2023-04-15T20:12:58.195Z,4.13
2023-04-15T20:15:25.394Z,2.40
2023-04-15T20:17:52.531Z,4.47
2023-04-15T20:20:19.738Z,3.03
2023-04-15T20:22:46.918Z,5.03
2023-04-15T20:25:14.091Z,3.80
2023-04-15T20:27:41.326Z,4.78
2023-04-15T20:30:08.732Z,4.15
2023-04-15T20:32:36.440Z,3.58
2023-04-15T20:35:07.057Z,3.08
2023-04-15T20:37:34.299Z,3.53
2023-04-15T20:40:02.006Z,3.15
2023-04-15T20:42:33.082Z,3.58
2023-04-15T20:45:00.586Z,3.65
2023-04-15T20:47:27.868Z,5.68
2023-04-15T20:49:55.114Z,8.32
2023-04-15T20:52:22.327Z,15.40
2023-04-15T20:54:49.468Z,11.50
2023-04-15T20:57:17.042Z,3.95
2023-04-15T20:59:44.245Z,6.55
2023-04-15T21:02:11.650Z,4.72
2023-04-15T21:04:39.302Z,5.55
2023-04-15T21:07:06.515Z,13.32
2023-04-15T21:09:33.789Z,4.10
2023-04-15T21:12:02.132Z,10.38
2023-04-15T21:14:29.767Z,4.68
2023-04-15T21:17:03.277Z,5.05
2023-04-15T21:19:30.520Z,5.32
2023-04-15T21:21:57.645Z,3.45
2023-04-15T21:24:24.849Z,4.18
2023-04-15T21:26:51.964Z,3.65
2023-04-15T21:29:19.170Z,3.30
2023-04-15T21:31:46.415Z,3.40
2023-04-15T21:34:13.525Z,4.95
2023-04-15T21:36:40.833Z,5.13
2023-04-15T21:39:08.054Z,5.05
2023-04-15T21:41:36.598Z,3.10
2023-04-15T21:44:04.012Z,3.17
2023-04-15T21:46:32.764Z,3.58
2023-04-15T21:49:02.209Z,2.67
2023-04-15T21:51:29.339Z,5.88
2023-04-15T21:53:56.536Z,4.38
2023-04-15T21:56:24.678Z,2.72
2023-04-15T21:58:54.882Z,2.28
2023-04-15T22:01:22.062Z,3.95
2023-04-15T22:03:49.783Z,4.90
2023-04-15T22:06:16.980Z,2.80
2023-04-15T22:08:55.345Z,3.92
2023-04-15T22:11:27.441Z,5.85
2023-04-15T22:13:55.620Z,6.35
2023-04-15T22:16:22.869Z,3.03
2023-04-15T22:18:50.126Z,4.57
2023-04-15T22:21:17.295Z,2.38
2023-04-15T22:23:47.952Z,2.78
2023-04-15T22:26:15.335Z,5.32
2023-04-15T22:28:42.616Z,2.72
2023-04-15T22:31:11.116Z,4.00
2023-04-15T22:33:38.945Z,3.13
2023-04-15T22:36:06.391Z,3.17
2023-04-15T22:38:34.495Z,2.35
2023-04-15T22:41:01.673Z,3.22
2023-04-15T22:43:28.872Z,4.65
2023-04-15T22:45:56.831Z,2.55
2023-04-15T22:48:24.084Z,2.75
2023-04-15T22:50:51.329Z,3.63
2023-04-15T22:53:18.691Z,3.10
2023-04-15T22:55:46.926Z,2.95
2023-04-15T22:58:14.602Z,2.65
2023-04-15T23:00:43.315Z,2.97
2023-04-15T23:03:11.008Z,1.73
2023-04-15T23:05:40.022Z,3.17
2023-04-15T23:08:07.390Z,3.40
2023-04-15T23:10:34.586Z,4.47
2023-04-15T23:13:01.806Z,2.50
2023-04-15T23:15:29.053Z,3.80
2023-04-15T23:17:56.272Z,3.78
2023-04-15T23:20:23.557Z,2.92
2023-04-15T23:22:50.781Z,2.47
2023-04-15T23:25:18.028Z,2.33
2023-04-15T23:27:45.304Z,2.42
2023-04-15T23:30:12.613Z,3.20
2023-04-15T23:32:40.022Z,2.75
2023-04-15T23:35:07.415Z,2.97
2023-04-15T23:37:34.628Z,3.50
2023-04-15T23:40:01.758Z,3.58
2023-04-15T23:42:28.872Z,2.25
2023-04-15T23:44:56.253Z,2.22
2023-04-15T23:47:23.648Z,4.30
2023-04-15T23:49:50.772Z,2.58
2023-04-15T23:52:17.895Z,2.17
2023-04-15T23:54:45.009Z,1.92
2023-04-15T23:57:12.221Z,2.67
2023-04-15T23:59:39.354Z,2.85
